sensor_id;sensor_type;location;lat;lon;timestamp;pressure;altitude;pressure_sealevel;temperature;humidity
54918;BME280;40818;50.562;7.454;2022-09-13T06:51:16;97246.44;;;14.50;100.00
54918;BME280;40818;50.562;7.454;2022-09-13T06:56:21;97238.06;;;14.56;100.00
54918;BME280;40818;50.562;7.454;2022-09-13T07:01:27;97238.09;;;14.66;100.00
54918;BME280;40818;50.562;7.454;2022-09-13T07:06:35;97237.53;;;14.82;100.00
54918;BME280;40818;50.562;7.454;2022-09-13T07:11:40;97234.88;;;15.01;100.00
54918;BME280;40818;50.562;7.454;2022-09-13T07:16:44;97240.06;;;15.21;100.00
54918;BME280;40818;50.562;7.454;2022-09-13T07:21:50;97242.28;;;15.26;100.00
54918;BME280;40818;50.562;7.454;2022-09-13T07:26:54;97245.25;;;15.41;100.00
54918;BME280;40818;50.562;7.454;2022-09-13T07:31:58;97247.00;;;15.50;100.00
54918;BME280;40818;50.562;7.454;2022-09-13T07:37:04;97250.78;;;15.65;100.00
54918;BME280;40818;50.562;7.454;2022-09-13T07:42:08;97248.97;;;15.76;100.00
54918;BME280;40818;50.562;7.454;2022-09-13T07:47:12;97251.94;;;15.91;100.00
54918;BME280;40818;50.562;7.454;2022-09-13T07:52:18;97255.09;;;15.94;100.00
54918;BME280;40818;50.562;7.454;2022-09-13T07:57:21;97242.97;;;15.93;100.00
54918;BME280;40818;50.562;7.454;2022-09-13T08:02:25;97240.31;;;16.03;100.00
54918;BME280;40818;50.562;7.454;2022-09-13T08:07:31;97241.19;;;16.21;100.00
54918;BME280;40818;50.562;7.454;2022-09-13T08:12:35;97238.09;;;16.26;99.14
54918;BME280;40818;50.562;7.454;2022-09-13T08:17:38;97243.91;;;16.48;99.59
54918;BME280;40818;50.562;7.454;2022-09-13T08:22:44;97229.66;;;16.68;99.24
54918;BME280;40818;50.562;7.454;2022-09-13T08:27:48;97230.41;;;16.79;98.51
54918;BME280;40818;50.562;7.454;2022-09-13T08:32:51;97232.72;;;16.82;97.72
54918;BME280;40818;50.562;7.454;2022-09-13T08:37:58;97214.59;;;16.88;100.00
54918;BME280;40818;50.562;7.454;2022-09-13T08:43:05;97216.50;;;16.86;98.84
54918;BME280;40818;50.562;7.454;2022-09-13T08:48:15;97245.84;;;17.26;98.07
54918;BME280;40818;50.562;7.454;2022-09-13T08:53:25;97240.19;;;17.73;97.13
54918;BME280;40818;50.562;7.454;2022-09-13T08:58:38;97244.97;;;18.21;95.51
54918;BME280;40818;50.562;7.454;2022-09-13T09:03:53;97240.41;;;18.56;92.67
54918;BME280;40818;50.562;7.454;2022-09-13T09:09:06;97240.47;;;18.89;91.88
54918;BME280;40818;50.562;7.454;2022-09-13T09:14:16;97249.97;;;18.98;93.30
54918;BME280;40818;50.562;7.454;2022-09-13T09:19:23;97251.28;;;19.10;91.97
54918;BME280;40818;50.562;7.454;2022-09-13T09:24:34;97256.69;;;19.34;92.61
54918;BME280;40818;50.562;7.454;2022-09-13T09:29:40;97257.81;;;19.48;92.00
54918;BME280;40818;50.562;7.454;2022-09-13T09:34:53;97261.97;;;19.90;87.06
54918;BME280;40818;50.562;7.454;2022-09-13T09:40:08;97263.16;;;20.19;87.92
54918;BME280;40818;50.562;7.454;2022-09-13T09:45:24;97265.56;;;20.60;86.73
54918;BME280;40818;50.562;7.454;2022-09-13T09:50:30;97273.34;;;21.00;87.62
54918;BME280;40818;50.562;7.454;2022-09-13T09:55:42;97275.34;;;21.36;86.12
54918;BME280;40818;50.562;7.454;2022-09-13T10:00:52;97275.22;;;21.67;79.56
54918;BME280;40818;50.562;7.454;2022-09-13T10:06:04;97273.31;;;21.91;77.44
54918;BME280;40818;50.562;7.454;2022-09-13T10:11:11;97278.16;;;22.24;78.17
54918;BME280;40818;50.562;7.454;2022-09-13T10:16:24;97268.91;;;22.49;72.51
54918;BME280;40818;50.562;7.454;2022-09-13T10:21:28;97266.13;;;22.79;73.17
54918;BME280;40818;50.562;7.454;2022-09-13T10:26:35;97268.97;;;22.99;72.43
54918;BME280;40818;50.562;7.454;2022-09-13T10:31:40;97261.72;;;23.30;73.21
54918;BME280;40818;50.562;7.454;2022-09-13T10:36:51;97255.09;;;23.47;69.06
54918;BME280;40818;50.562;7.454;2022-09-13T10:42:00;97249.31;;;23.72;65.36
54918;BME280;40818;50.562;7.454;2022-09-13T10:47:06;97247.97;;;23.83;66.55
54918;BME280;40818;50.562;7.454;2022-09-13T10:52:24;97240.22;;;23.81;63.81
54918;BME280;40818;50.562;7.454;2022-09-13T10:57:35;97229.53;;;23.68;63.61
54918;BME280;40818;50.562;7.454;2022-09-13T11:02:52;97228.16;;;23.79;66.65
54918;BME280;40818;50.562;7.454;2022-09-13T11:08:09;97218.28;;;24.08;64.45
54918;BME280;40818;50.562;7.454;2022-09-13T11:13:25;97216.13;;;24.25;62.97
54918;BME280;40818;50.562;7.454;2022-09-13T11:18:57;97210.41;;;24.28;63.72
54918;BME280;40818;50.562;7.454;2022-09-13T11:29:57;97199.44;;;24.44;63.24
54918;BME280;40818;50.562;7.454;2022-09-13T11:35:20;97207.13;;;24.26;64.95
54918;BME280;40818;50.562;7.454;2022-09-13T11:40:35;97207.53;;;24.09;63.88
54918;BME280;40818;50.562;7.454;2022-09-13T11:45:50;97200.75;;;24.00;65.19
54918;BME280;40818;50.562;7.454;2022-09-13T11:51:02;97206.47;;;23.62;64.55
54918;BME280;40818;50.562;7.454;2022-09-13T11:56:13;97204.53;;;23.77;66.91
54918;BME280;40818;50.562;7.454;2022-09-13T12:01:25;97213.03;;;23.73;62.48
54918;BME280;40818;50.562;7.454;2022-09-13T12:06:33;97214.31;;;23.83;63.80
54918;BME280;40818;50.562;7.454;2022-09-13T12:11:42;97212.59;;;24.04;67.04
54918;BME280;40818;50.562;7.454;2022-09-13T12:16:53;97215.66;;;24.14;64.94
54918;BME280;40818;50.562;7.454;2022-09-13T12:21:59;97207.91;;;24.13;66.45
54918;BME280;40818;50.562;7.454;2022-09-13T12:27:08;97194.91;;;24.25;64.02
54918;BME280;40818;50.562;7.454;2022-09-13T12:32:18;97185.06;;;24.05;66.43
54918;BME280;40818;50.562;7.454;2022-09-13T12:37:47;97184.63;;;23.53;70.78
54918;BME280;40818;50.562;7.454;2022-09-13T12:43:06;97176.78;;;23.80;66.48
54918;BME280;40818;50.562;7.454;2022-09-13T12:48:34;97179.38;;;24.08;67.72
54918;BME280;40818;50.562;7.454;2022-09-13T12:54:16;97162.25;;;23.21;68.68
54918;BME280;40818;50.562;7.454;2022-09-13T12:59:47;97163.56;;;23.10;70.86
54918;BME280;40818;50.562;7.454;2022-09-13T13:04:59;97158.09;;;22.83;72.32
54918;BME280;40818;50.562;7.454;2022-09-13T13:10:04;97158.03;;;22.48;71.35
54918;BME280;40818;50.562;7.454;2022-09-13T13:26:49;97151.94;;;23.04;70.64
54918;BME280;40818;50.562;7.454;2022-09-13T13:32:10;97148.22;;;23.27;71.67
54918;BME280;40818;50.562;7.454;2022-09-13T13:42:35;97153.88;;;22.60;76.37
54918;BME280;40818;50.562;7.454;2022-09-13T13:53:31;97167.22;;;23.02;74.00
54918;BME280;40818;50.562;7.454;2022-09-13T13:58:48;97164.16;;;22.77;73.42
54918;BME280;40818;50.562;7.454;2022-09-13T14:09:38;97137.97;;;21.95;80.45
54918;BME280;40818;50.562;7.454;2022-09-13T14:15:00;97130.56;;;21.69;81.20
54918;BME280;40818;50.562;7.454;2022-09-13T14:20:08;97116.47;;;21.47;80.21
54918;BME280;40818;50.562;7.454;2022-09-13T14:25:22;97125.94;;;21.41;82.98
54918;BME280;40818;50.562;7.454;2022-09-13T14:30:31;97122.75;;;21.46;86.82
54918;BME280;40818;50.562;7.454;2022-09-13T14:35:39;97123.13;;;21.73;82.21
54918;BME280;40818;50.562;7.454;2022-09-13T14:40:46;97126.03;;;21.99;81.76
54918;BME280;40818;50.562;7.454;2022-09-13T14:45:58;97117.09;;;22.01;82.97
54918;BME280;40818;50.562;7.454;2022-09-13T14:51:12;97115.00;;;21.96;82.26
54918;BME280;40818;50.562;7.454;2022-09-13T14:56:27;97119.94;;;21.99;80.25
54918;BME280;40818;50.562;7.454;2022-09-13T15:01:34;97121.66;;;21.70;82.90
54918;BME280;40818;50.562;7.454;2022-09-13T15:06:39;97133.53;;;21.29;85.20
54918;BME280;40818;50.562;7.454;2022-09-13T15:11:55;97124.34;;;21.25;85.93
54918;BME280;40818;50.562;7.454;2022-09-13T15:17:12;97120.88;;;21.25;85.95
54918;BME280;40818;50.562;7.454;2022-09-13T15:22:21;97122.72;;;21.76;82.07
54918;BME280;40818;50.562;7.454;2022-09-13T15:27:27;97117.88;;;21.79;81.99
54918;BME280;40818;50.562;7.454;2022-09-13T15:32:40;97121.31;;;21.58;83.28
54918;BME280;40818;50.562;7.454;2022-09-13T15:37:45;97124.13;;;21.93;80.40
54918;BME280;40818;50.562;7.454;2022-09-13T15:42:51;97127.53;;;22.30;78.80
54918;BME280;40818;50.562;7.454;2022-09-13T15:47:57;97120.56;;;22.44;77.05
54918;BME280;40818;50.562;7.454;2022-09-13T15:53:01;97112.97;;;22.63;74.93
54918;BME280;40818;50.562;7.454;2022-09-13T15:58:04;97112.97;;;22.63;74.94
54918;BME280;40818;50.562;7.454;2022-09-13T16:03:10;97102.19;;;22.58;76.84
54918;BME280;40818;50.562;7.454;2022-09-13T16:08:13;97108.09;;;22.95;75.58
54918;BME280;40818;50.562;7.454;2022-09-13T16:13:17;97115.38;;;23.14;74.00
54918;BME280;40818;50.562;7.454;2022-09-13T16:18:23;97117.09;;;23.29;72.76
54918;BME280;40818;50.562;7.454;2022-09-13T16:23:27;97113.28;;;23.10;73.32
54918;BME280;40818;50.562;7.454;2022-09-13T16:28:30;97116.03;;;22.95;74.28
54918;BME280;40818;50.562;7.454;2022-09-13T16:33:36;97122.13;;;22.89;74.19
54918;BME280;40818;50.562;7.454;2022-09-13T16:38:40;97127.69;;;22.72;74.94
54918;BME280;40818;50.562;7.454;2022-09-13T16:43:43;97131.25;;;22.58;75.87
54918;BME280;40818;50.562;7.454;2022-09-13T16:48:54;97114.91;;;22.47;77.60
54918;BME280;40818;50.562;7.454;2022-09-13T16:53:58;97114.25;;;22.24;78.64
54918;BME280;40818;50.562;7.454;2022-09-13T16:59:02;97109.09;;;21.94;80.61
54918;BME280;40818;50.562;7.454;2022-09-13T17:04:08;97110.22;;;21.63;82.62
54918;BME280;40818;50.562;7.454;2022-09-13T17:09:12;97115.94;;;21.37;84.16
54918;BME280;40818;50.562;7.454;2022-09-13T17:14:16;97125.25;;;21.18;85.27
54918;BME280;40818;50.562;7.454;2022-09-13T17:19:26;97118.16;;;21.03;86.67
54918;BME280;40818;50.562;7.454;2022-09-13T17:24:32;97116.59;;;20.94;87.85
54918;BME280;40818;50.562;7.454;2022-09-13T17:29:36;97116.56;;;20.79;89.54
54918;BME280;40818;50.562;7.454;2022-09-13T17:34:42;97120.75;;;20.73;89.98
54918;BME280;40818;50.562;7.454;2022-09-13T17:39:46;97119.50;;;20.61;90.83
54918;BME280;40818;50.562;7.454;2022-09-13T17:44:49;97116.50;;;20.49;91.96
54918;BME280;40818;50.562;7.454;2022-09-13T17:49:55;97119.09;;;20.34;92.43
54918;BME280;40818;50.562;7.454;2022-09-13T17:54:59;97111.97;;;20.20;93.77
54918;BME280;40818;50.562;7.454;2022-09-13T18:00:04;97122.75;;;20.10;95.06
54918;BME280;40818;50.562;7.454;2022-09-13T18:05:10;97121.34;;;19.99;96.31
54918;BME280;40818;50.562;7.454;2022-09-13T18:10:14;97120.63;;;19.82;97.98
54918;BME280;40818;50.562;7.454;2022-09-13T18:15:17;97116.84;;;19.76;98.45
54918;BME280;40818;50.562;7.454;2022-09-13T18:20:24;97126.41;;;19.69;99.39
54918;BME280;40818;50.562;7.454;2022-09-13T18:25:27;97119.38;;;19.61;100.00
54918;BME280;40818;50.562;7.454;2022-09-13T18:30:31;97135.03;;;19.55;100.00
54918;BME280;40818;50.562;7.454;2022-09-13T18:35:37;97130.47;;;19.49;100.00
54918;BME280;40818;50.562;7.454;2022-09-13T18:40:40;97130.00;;;19.45;100.00
54918;BME280;40818;50.562;7.454;2022-09-13T18:45:52;97132.31;;;19.40;100.00
54918;BME280;40818;50.562;7.454;2022-09-13T18:50:59;97123.34;;;19.18;100.00
54918;BME280;40818;50.562;7.454;2022-09-13T18:56:04;97130.28;;;19.02;100.00
54918;BME280;40818;50.562;7.454;2022-09-13T19:01:10;97123.41;;;19.01;100.00
54918;BME280;40818;50.562;7.454;2022-09-13T19:06:19;97115.81;;;19.06;100.00
54918;BME280;40818;50.562;7.454;2022-09-13T19:11:24;97116.66;;;19.07;100.00
54918;BME280;40818;50.562;7.454;2022-09-13T19:16:28;97114.19;;;19.05;100.00
54918;BME280;40818;50.562;7.454;2022-09-13T19:21:34;97108.28;;;18.87;100.00
54918;BME280;40818;50.562;7.454;2022-09-13T19:26:38;97102.41;;;18.60;100.00
54918;BME280;40818;50.562;7.454;2022-09-13T19:31:44;97108.97;;;18.72;100.00
54918;BME280;40818;50.562;7.454;2022-09-13T19:36:51;97094.19;;;18.71;100.00
54918;BME280;40818;50.562;7.454;2022-09-13T19:41:58;97092.59;;;18.46;100.00
54918;BME280;40818;50.562;7.454;2022-09-13T19:47:01;97086.84;;;18.42;100.00
54918;BME280;40818;50.562;7.454;2022-09-13T19:52:09;97085.69;;;18.53;100.00
54918;BME280;40818;50.562;7.454;2022-09-13T19:57:13;97091.28;;;18.58;100.00
54918;BME280;40818;50.562;7.454;2022-09-13T20:02:16;97082.03;;;18.62;100.00
54918;BME280;40818;50.562;7.454;2022-09-13T20:07:22;97069.56;;;18.64;100.00
54918;BME280;40818;50.562;7.454;2022-09-13T20:12:25;97092.25;;;18.65;100.00
54918;BME280;40818;50.562;7.454;2022-09-13T20:17:29;97084.19;;;18.67;100.00
54918;BME280;40818;50.562;7.454;2022-09-13T20:22:35;97083.41;;;18.50;100.00
54918;BME280;40818;50.562;7.454;2022-09-13T20:27:39;97086.50;;;18.53;100.00
54918;BME280;40818;50.562;7.454;2022-09-13T20:32:42;97082.72;;;18.56;100.00
54918;BME280;40818;50.562;7.454;2022-09-13T20:37:49;97083.22;;;18.59;100.00
54918;BME280;40818;50.562;7.454;2022-09-13T20:42:53;97087.63;;;18.59;100.00
54918;BME280;40818;50.562;7.454;2022-09-13T20:47:56;97069.91;;;18.45;100.00
54918;BME280;40818;50.562;7.454;2022-09-13T20:53:02;97059.75;;;18.33;100.00
54918;BME280;40818;50.562;7.454;2022-09-13T20:58:06;97053.66;;;18.41;100.00
54918;BME280;40818;50.562;7.454;2022-09-13T21:03:09;97041.34;;;18.41;100.00
54918;BME280;40818;50.562;7.454;2022-09-13T21:08:16;97042.00;;;18.35;100.00
54918;BME280;40818;50.562;7.454;2022-09-13T21:13:33;97026.75;;;18.31;100.00
54918;BME280;40818;50.562;7.454;2022-09-13T21:18:37;97035.16;;;18.10;100.00
54918;BME280;40818;50.562;7.454;2022-09-13T21:23:43;97021.00;;;18.11;100.00
54918;BME280;40818;50.562;7.454;2022-09-13T21:28:47;97007.88;;;17.69;100.00
54918;BME280;40818;50.562;7.454;2022-09-13T21:33:52;97012.78;;;17.72;100.00
54918;BME280;40818;50.562;7.454;2022-09-13T21:39:00;97010.53;;;17.94;100.00
54918;BME280;40818;50.562;7.454;2022-09-13T21:44:04;97022.50;;;18.05;100.00
54918;BME280;40818;50.562;7.454;2022-09-13T21:49:09;97014.13;;;18.10;100.00
54918;BME280;40818;50.562;7.454;2022-09-13T21:54:17;97008.56;;;18.13;100.00
54918;BME280;40818;50.562;7.454;2022-09-13T21:59:21;97009.53;;;18.12;100.00
54918;BME280;40818;50.562;7.454;2022-09-13T22:04:25;96998.69;;;18.15;100.00
54918;BME280;40818;50.562;7.454;2022-09-13T22:09:31;96997.41;;;17.94;100.00
54918;BME280;40818;50.562;7.454;2022-09-13T22:14:35;96984.91;;;18.04;100.00
54918;BME280;40818;50.562;7.454;2022-09-13T22:19:38;96973.44;;;17.97;100.00
54918;BME280;40818;50.562;7.454;2022-09-13T22:24:44;96957.34;;;17.75;100.00
54918;BME280;40818;50.562;7.454;2022-09-13T22:29:48;96953.06;;;17.83;100.00
54918;BME280;40818;50.562;7.454;2022-09-13T22:34:51;96945.06;;;17.93;100.00
54918;BME280;40818;50.562;7.454;2022-09-13T22:39:58;96943.59;;;17.98;100.00
54918;BME280;40818;50.562;7.454;2022-09-13T22:45:01;96946.84;;;18.00;100.00
54918;BME280;40818;50.562;7.454;2022-09-13T22:50:05;96961.63;;;18.01;100.00
54918;BME280;40818;50.562;7.454;2022-09-13T22:55:11;96967.69;;;18.02;100.00
